Time;durP1;ratioP1;P1;durP2;ratioP2;P2;SDS_P1;SDS_P2;PMS_P1;PMS_P2;Temp;Humidity;BMP_temperature;BMP_pressure;BME280_temperature;BME280_humidity;BME280_pressure;Samples;Min_cycle;Max_cycle;Signal;HPM_P1;HPM_P2
2023/04/29 00:01:58;;;;;;;41.72;26.60;;;10.50;99.90;;;;;;5039502;28;22276;-65
2023/04/29 00:04:24;;;;;;;39.00;26.23;;;10.50;99.90;;;;;;5031089;28;20042;-63
2023/04/29 00:06:50;;;;;;;41.55;26.88;;;10.50;99.90;;;;;;5033399;28;20497;-64
2023/04/29 00:09:15;;;;;;;39.35;25.77;;;10.50;99.90;;;;;;5050920;28;20045;-65
2023/04/29 00:11:41;;;;;;;37.83;25.48;;;10.50;99.90;;;;;;5047771;28;20061;-64
2023/04/29 00:14:07;;;;;;;37.17;24.65;;;10.50;99.90;;;;;;5045226;28;20045;-65
2023/04/29 00:16:32;;;;;;;38.28;26.83;;;10.50;99.90;;;;;;5042862;28;20045;-64
2023/04/29 00:18:58;;;;;;;33.67;23.42;;;10.50;99.90;;;;;;5047191;28;20137;-63
2023/04/29 00:21:26;;;;;;;38.08;24.55;;;10.50;99.90;;;;;;5043055;28;20049;-64
2023/04/29 00:23:52;;;;;;;33.08;23.95;;;10.50;99.90;;;;;;5045237;28;20056;-65
2023/04/29 00:26:17;;;;;;;39.55;25.48;;;10.50;99.90;;;;;;5037033;28;20436;-64
2023/04/29 00:28:43;;;;;;;34.58;24.73;;;10.40;99.90;;;;;;5038763;28;20045;-64
2023/04/29 00:31:09;;;;;;;33.85;23.35;;;10.40;99.90;;;;;;5042382;28;20045;-66
2023/04/29 00:33:35;;;;;;;33.20;23.40;;;10.40;99.90;;;;;;5054598;28;20043;-63
2023/04/29 00:36:01;;;;;;;30.90;22.45;;;10.40;99.90;;;;;;5070528;28;20051;-65
2023/04/29 00:38:26;;;;;;;32.17;23.33;;;10.40;99.90;;;;;;5053352;28;20468;-66
2023/04/29 00:40:52;;;;;;;32.00;22.13;;;10.30;99.90;;;;;;5048824;28;20219;-64
2023/04/29 00:43:18;;;;;;;35.53;22.58;;;10.30;99.90;;;;;;5032342;28;20490;-64
2023/04/29 00:45:45;;;;;;;30.52;22.33;;;10.30;99.90;;;;;;5028883;28;20449;-64
2023/04/29 00:48:14;;;;;;;31.25;22.27;;;10.30;99.90;;;;;;5048331;28;20170;-64
2023/04/29 00:50:39;;;;;;;32.30;22.63;;;10.30;99.90;;;;;;5044473;28;20428;-64
2023/04/29 00:53:06;;;;;;;34.58;23.05;;;10.30;99.90;;;;;;5042281;28;20093;-64
2023/04/29 00:55:33;;;;;;;33.38;22.15;;;10.30;99.90;;;;;;5041682;28;20369;-64
2023/04/29 00:57:59;;;;;;;32.25;21.23;;;10.20;99.90;;;;;;5029919;28;20056;-64
2023/04/29 01:00:25;;;;;;;32.45;21.52;;;10.30;99.90;;;;;;5037215;28;20230;-63
2023/04/29 01:02:53;;;;;;;29.55;21.65;;;10.30;99.90;;;;;;5051436;28;20164;-65
2023/04/29 01:05:19;;;;;;;28.02;21.08;;;10.30;99.90;;;;;;5050294;28;20160;-63
2023/04/29 01:08:05;;;;;;;30.25;21.23;;;10.30;99.90;;;;;;5044624;28;20455;-65
2023/04/29 01:10:54;;;;;;;34.72;22.10;;;10.20;99.90;;;;;;5045764;28;20049;-64
2023/04/29 01:13:29;;;;;;;29.42;20.98;;;10.20;99.90;;;;;;5033419;28;20124;-65
2023/04/29 01:16:03;;;;;;;31.02;21.63;;;10.20;99.90;;;;;;5033821;28;20049;-64
2023/04/29 01:18:33;;;;;;;31.58;20.70;;;10.10;99.90;;;;;;5033701;28;20045;-64
2023/04/29 01:20:59;;;;;;;34.42;20.75;;;10.20;99.90;;;;;;5040699;28;20116;-65
2023/04/29 01:23:26;;;;;;;33.88;21.48;;;10.20;99.90;;;;;;5053201;28;20052;-64
2023/04/29 01:25:51;;;;;;;28.67;21.65;;;10.10;99.90;;;;;;5062080;28;20141;-64
2023/04/29 01:28:49;;;;;;;32.83;21.38;;;10.10;99.90;;;;;;5043602;28;20148;-64
2023/04/29 01:31:23;;;;;;;32.53;20.95;;;10.20;99.90;;;;;;5033292;28;20117;-63
2023/04/29 01:34:21;;;;;;;31.17;21.88;;;10.10;99.90;;;;;;5043075;28;20463;-64
2023/04/29 01:37:09;;;;;;;36.65;21.80;;;10.20;99.90;;;;;;5049501;28;20531;-65
2023/04/29 01:40:11;;;;;;;35.70;22.13;;;10.10;99.90;;;;;;5041051;28;20134;-64
2023/04/29 01:42:47;;;;;;;36.92;23.42;;;10.10;99.90;;;;;;5034143;28;20102;-64
2023/04/29 01:45:20;;;;;;;38.53;22.50;;;10.10;99.90;;;;;;5051487;28;20056;-65
2023/04/29 01:47:46;;;;;;;35.35;23.23;;;10.10;99.90;;;;;;5042336;28;20050;-64
2023/04/29 01:50:11;;;;;;;33.22;23.25;;;10.10;99.90;;;;;;5031311;28;20067;-64
2023/04/29 01:52:37;;;;;;;35.03;23.23;;;10.10;99.90;;;;;;5045079;28;20045;-64
2023/04/29 01:55:03;;;;;;;33.85;21.42;;;10.10;99.90;;;;;;5053170;28;20045;-64
2023/04/29 01:57:29;;;;;;;36.78;23.08;;;10.10;99.90;;;;;;5033842;28;20099;-64
2023/04/29 01:59:56;;;;;;;34.53;21.98;;;10.10;99.90;;;;;;5046032;28;20081;-64
2023/04/29 02:02:22;;;;;;;35.13;22.90;;;10.10;99.90;;;;;;5049983;28;20045;-64
2023/04/29 02:04:49;;;;;;;33.03;21.92;;;10.10;99.90;;;;;;5037560;28;20045;-64
2023/04/29 02:07:15;;;;;;;34.85;22.45;;;10.00;99.90;;;;;;5045266;28;20091;-64
2023/04/29 02:09:41;;;;;;;33.60;21.10;;;10.00;99.90;;;;;;5041996;28;20037;-63
2023/04/29 02:12:07;;;;;;;36.80;21.45;;;10.00;99.90;;;;;;5038082;28;20042;-65
2023/04/29 02:14:33;;;;;;;33.95;21.48;;;10.00;99.90;;;;;;5043915;28;20041;-65
2023/04/29 02:16:59;;;;;;;32.97;21.90;;;10.00;99.90;;;;;;5052349;28;20372;-65
2023/04/29 02:19:25;;;;;;;32.95;21.75;;;10.00;99.90;;;;;;5034105;28;20053;-64
2023/04/29 02:21:50;;;;;;;32.67;20.65;;;10.00;99.90;;;;;;5042675;28;20049;-65
2023/04/29 02:24:16;;;;;;;34.75;22.33;;;10.00;99.90;;;;;;5040400;28;20046;-64
2023/04/29 02:26:41;;;;;;;34.38;21.65;;;10.10;99.90;;;;;;5043452;28;20133;-64
2023/04/29 02:29:07;;;;;;;29.35;20.70;;;10.10;99.90;;;;;;5034697;28;20148;-64
2023/04/29 02:31:33;;;;;;;36.38;21.05;;;10.10;99.90;;;;;;5046676;28;20104;-64
2023/04/29 02:33:59;;;;;;;36.63;22.08;;;10.10;99.90;;;;;;5038179;28;20041;-64
2023/04/29 02:36:25;;;;;;;33.90;21.15;;;10.10;99.90;;;;;;5035853;28;20079;-64
2023/04/29 02:38:54;;;;;;;35.67;21.73;;;10.00;99.90;;;;;;5046226;28;20354;-64
2023/04/29 02:41:19;;;;;;;35.20;22.35;;;10.00;99.90;;;;;;5035447;28;20041;-64
2023/04/29 02:43:45;;;;;;;37.40;21.77;;;10.00;99.90;;;;;;5050507;28;20417;-63
2023/04/29 02:46:11;;;;;;;35.90;22.30;;;9.90;99.90;;;;;;5039021;28;20052;-65
2023/04/29 02:48:36;;;;;;;36.47;21.10;;;10.00;99.90;;;;;;5031660;28;20437;-64
2023/04/29 02:51:02;;;;;;;30.50;20.27;;;9.90;99.90;;;;;;5032596;28;20049;-64
2023/04/29 02:53:28;;;;;;;33.20;20.77;;;9.90;99.90;;;;;;5049668;28;20181;-64
2023/04/29 02:55:54;;;;;;;31.83;20.63;;;10.00;99.90;;;;;;5050385;28;20445;-65
2023/04/29 02:58:20;;;;;;;37.80;21.85;;;9.90;99.90;;;;;;5042077;28;20049;-64
2023/04/29 03:00:45;;;;;;;34.75;21.38;;;9.90;99.90;;;;;;5045046;28;20037;-63
2023/04/29 03:03:11;;;;;;;33.70;22.00;;;9.90;99.90;;;;;;5045606;28;20048;-63
2023/04/29 03:05:37;;;;;;;34.20;20.85;;;9.90;99.90;;;;;;5034446;28;20045;-64
2023/04/29 03:08:03;;;;;;;39.03;22.38;;;9.90;99.90;;;;;;5047927;28;20033;-65
2023/04/29 03:10:29;;;;;;;32.70;21.15;;;9.90;99.90;;;;;;5031375;28;20041;-63
2023/04/29 03:12:55;;;;;;;34.85;20.33;;;9.90;99.90;;;;;;5035217;28;20112;-64
2023/04/29 03:15:20;;;;;;;36.05;21.25;;;9.90;99.90;;;;;;5039455;28;20052;-63
2023/04/29 03:17:46;;;;;;;33.70;20.42;;;9.90;99.90;;;;;;5045657;28;20045;-64
2023/04/29 03:20:12;;;;;;;30.38;19.48;;;9.90;99.90;;;;;;5031924;28;20037;-64
2023/04/29 03:22:37;;;;;;;38.10;20.77;;;9.90;99.90;;;;;;5043719;28;20033;-64
2023/04/29 03:25:04;;;;;;;31.85;20.48;;;9.90;99.90;;;;;;5047748;28;20071;-64
2023/04/29 03:27:29;;;;;;;31.48;19.80;;;9.90;99.90;;;;;;5035467;28;20444;-64
2023/04/29 03:29:55;;;;;;;31.10;20.58;;;9.90;99.90;;;;;;5036842;28;20188;-64
2023/04/29 03:32:21;;;;;;;29.15;19.45;;;9.90;99.90;;;;;;5047400;28;20048;-64
2023/04/29 03:34:48;;;;;;;32.45;20.02;;;9.80;99.90;;;;;;5046240;28;20067;-64
2023/04/29 03:37:15;;;;;;;39.03;20.77;;;9.80;99.90;;;;;;5031191;28;20049;-64
2023/04/29 03:39:41;;;;;;;28.92;19.48;;;9.90;99.90;;;;;;5048892;28;20083;-64
2023/04/29 03:42:06;;;;;;;32.40;19.38;;;9.80;99.90;;;;;;5044337;28;20056;-64
2023/04/29 03:44:32;;;;;;;32.45;19.75;;;9.70;99.90;;;;;;5040174;28;20045;-67
2023/04/29 03:46:58;;;;;;;29.33;19.55;;;9.70;99.90;;;;;;5050599;28;20476;-64
2023/04/29 03:49:24;;;;;;;34.28;20.02;;;9.60;99.90;;;;;;5033518;28;20117;-64
2023/04/29 03:51:50;;;;;;;28.98;18.63;;;9.70;99.90;;;;;;5030692;28;20080;-64
2023/04/29 03:54:16;;;;;;;30.13;18.77;;;9.70;99.90;;;;;;5048791;28;20108;-65
2023/04/29 03:56:42;;;;;;;32.55;19.48;;;9.70;99.90;;;;;;5048193;28;20179;-64
2023/04/29 03:59:10;;;;;;;34.58;18.95;;;9.70;99.90;;;;;;5044053;28;20041;-66
2023/04/29 04:01:35;;;;;;;31.05;18.40;;;9.70;99.90;;;;;;5047046;28;20562;-63
2023/04/29 04:04:01;;;;;;;27.10;18.52;;;9.70;99.90;;;;;;5031070;28;20120;-64
2023/04/29 04:06:27;;;;;;;34.83;19.50;;;9.70;99.90;;;;;;5037088;28;20052;-65
2023/04/29 04:08:52;;;;;;;28.17;18.55;;;9.60;99.90;;;;;;5049862;28;20048;-65
2023/04/29 04:11:18;;;;;;;34.25;19.05;;;9.60;99.90;;;;;;5049206;28;20045;-65
2023/04/29 04:13:43;;;;;;;28.55;18.70;;;9.60;99.90;;;;;;5032293;28;20090;-65
2023/04/29 04:16:10;;;;;;;29.17;18.40;;;9.60;99.90;;;;;;5050422;28;20108;-63
2023/04/29 04:18:37;;;;;;;29.95;18.77;;;9.60;99.90;;;;;;5041111;28;20057;-63
2023/04/29 04:21:10;;;;;;;30.27;18.60;;;9.60;99.90;;;;;;5049531;28;20059;-64
2023/04/29 04:23:36;;;;;;;30.42;20.02;;;9.60;99.90;;;;;;5049871;28;20049;-64
2023/04/29 04:26:02;;;;;;;30.92;20.00;;;9.60;99.90;;;;;;5044808;28;20128;-65
2023/04/29 04:28:28;;;;;;;30.67;19.98;;;9.60;99.90;;;;;;5033770;28;20124;-64
2023/04/29 04:30:53;;;;;;;31.40;19.20;;;9.60;99.90;;;;;;5035725;28;20049;-64
2023/04/29 04:33:19;;;;;;;34.75;20.40;;;9.60;99.90;;;;;;5050885;28;20076;-64
2023/04/29 04:35:45;;;;;;;32.13;20.10;;;9.60;99.90;;;;;;5040573;28;20049;-63
2023/04/29 04:38:11;;;;;;;34.72;20.27;;;9.60;99.90;;;;;;5053158;28;20341;-64
2023/04/29 04:40:40;;;;;;;32.70;18.77;;;9.60;99.90;;;;;;5053333;28;20037;-64
2023/04/29 04:43:06;;;;;;;33.85;20.48;;;9.60;99.90;;;;;;5044196;28;20046;-64
2023/04/29 04:45:32;;;;;;;34.83;20.45;;;9.60;99.90;;;;;;5046473;28;20120;-64
2023/04/29 04:47:57;;;;;;;33.20;20.40;;;9.60;99.90;;;;;;5052693;28;20062;-64
2023/04/29 04:50:23;;;;;;;33.42;19.92;;;9.60;99.90;;;;;;5053722;28;20403;-63
2023/04/29 04:52:48;;;;;;;34.90;19.83;;;9.60;99.90;;;;;;5052070;28;20045;-64
2023/04/29 04:55:14;;;;;;;33.38;20.30;;;9.50;99.90;;;;;;5051903;28;20079;-64
2023/04/29 04:57:40;;;;;;;35.03;20.15;;;9.50;99.90;;;;;;5050370;28;20172;-64
2023/04/29 05:00:06;;;;;;;36.42;20.17;;;9.50;99.90;;;;;;5035258;28;20486;-66
2023/04/29 05:02:32;;;;;;;35.90;21.08;;;9.60;99.90;;;;;;5034693;28;20048;-65
2023/04/29 05:04:57;;;;;;;30.95;19.55;;;9.60;99.90;;;;;;5050622;28;20037;-63
2023/04/29 05:07:23;;;;;;;35.63;19.58;;;9.60;99.90;;;;;;5043614;28;20111;-63
2023/04/29 05:09:48;;;;;;;31.38;20.48;;;9.60;99.90;;;;;;5052484;28;20045;-65
2023/04/29 05:12:14;;;;;;;36.25;21.33;;;9.60;99.90;;;;;;5050686;28;20037;-64
2023/04/29 05:14:40;;;;;;;33.28;19.38;;;9.60;99.90;;;;;;5052173;28;20055;-64
2023/04/29 05:17:05;;;;;;;35.10;20.08;;;9.60;99.90;;;;;;5046390;28;20033;-64
2023/04/29 05:19:31;;;;;;;30.58;18.83;;;9.60;99.90;;;;;;5052895;28;20088;-64
2023/04/29 05:21:56;;;;;;;31.15;17.75;;;9.70;99.90;;;;;;5051997;28;20033;-62
2023/04/29 05:24:22;;;;;;;30.27;19.00;;;9.70;99.90;;;;;;5054728;28;20049;-63
2023/04/29 05:26:50;;;;;;;31.45;18.80;;;9.70;99.90;;;;;;5046343;28;20045;-63
2023/04/29 05:29:16;;;;;;;29.48;17.05;;;9.70;99.90;;;;;;5051625;28;20056;-64
2023/04/29 05:31:42;;;;;;;29.33;17.23;;;9.80;99.90;;;;;;5034334;28;20061;-64
2023/04/29 05:34:07;;;;;;;29.88;18.20;;;9.80;99.90;;;;;;5033536;28;20041;-63
2023/04/29 05:36:33;;;;;;;30.08;17.10;;;9.80;99.90;;;;;;5033067;28;20045;-63
2023/04/29 05:38:58;;;;;;;27.98;16.63;;;9.90;99.90;;;;;;5037717;28;20505;-64
2023/04/29 05:41:24;;;;;;;28.65;16.60;;;9.90;99.90;;;;;;5052640;28;20049;-63
2023/04/29 05:43:50;;;;;;;25.38;15.68;;;9.90;99.90;;;;;;5048181;28;20045;-64
2023/04/29 05:46:16;;;;;;;25.13;15.95;;;9.90;99.90;;;;;;5039522;28;20044;-63
2023/04/29 05:48:41;;;;;;;25.30;16.08;;;10.00;99.90;;;;;;5033489;28;20052;-64
2023/04/29 05:51:07;;;;;;;27.05;15.15;;;10.00;99.90;;;;;;5051891;28;20447;-64
2023/04/29 05:53:32;;;;;;;26.67;15.35;;;10.00;99.90;;;;;;5040591;28;20502;-64
2023/04/29 05:55:58;;;;;;;22.13;14.82;;;10.00;99.90;;;;;;5044435;28;20033;-65
2023/04/29 05:58:27;;;;;;;24.33;14.65;;;10.10;99.90;;;;;;5046035;28;20469;-64
2023/04/29 06:00:52;;;;;;;24.35;14.30;;;10.10;99.90;;;;;;5038644;28;20456;-63
2023/04/29 06:03:18;;;;;;;23.33;13.98;;;10.10;99.90;;;;;;5043374;28;20072;-64
2023/04/29 06:05:44;;;;;;;22.65;13.10;;;10.10;99.90;;;;;;5037524;28;20112;-64
2023/04/29 06:08:09;;;;;;;18.63;12.88;;;10.20;99.90;;;;;;5039408;28;20033;-64
2023/04/29 06:10:35;;;;;;;21.73;12.07;;;10.20;99.90;;;;;;5040593;28;20045;-65
2023/04/29 06:13:01;;;;;;;19.00;11.77;;;10.20;99.90;;;;;;5046568;28;20551;-64
2023/04/29 06:15:27;;;;;;;17.25;11.65;;;10.20;99.90;;;;;;5048574;28;20124;-64
2023/04/29 06:17:53;;;;;;;19.25;11.07;;;10.30;99.90;;;;;;5044973;28;20461;-63
2023/04/29 06:20:19;;;;;;;18.23;11.23;;;10.40;99.90;;;;;;5042071;28;20037;-64
2023/04/29 06:22:44;;;;;;;17.85;10.75;;;10.40;99.90;;;;;;5050674;28;20476;-64
2023/04/29 06:25:10;;;;;;;16.05;10.45;;;10.50;99.90;;;;;;5049765;28;20068;-64
2023/04/29 06:27:35;;;;;;;16.65;10.30;;;10.50;99.90;;;;;;5045462;28;20068;-63
2023/04/29 06:30:01;;;;;;;16.45;10.38;;;10.60;99.90;;;;;;5042894;28;20041;-64
2023/04/29 06:32:26;;;;;;;16.55;9.82;;;10.60;99.90;;;;;;5034097;28;20061;-63
2023/04/29 06:34:52;;;;;;;15.68;9.50;;;10.60;99.90;;;;;;5048836;28;20041;-63
2023/04/29 06:37:18;;;;;;;17.75;10.13;;;10.70;99.90;;;;;;5048635;28;20369;-64
2023/04/29 06:39:44;;;;;;;16.08;9.15;;;10.90;99.90;;;;;;5046833;28;20094;-63
2023/04/29 06:42:09;;;;;;;14.35;8.40;;;10.90;99.90;;;;;;5050123;28;20029;-64
2023/04/29 06:44:35;;;;;;;15.13;8.73;;;11.00;99.90;;;;;;5045474;28;20119;-63
2023/04/29 06:47:01;;;;;;;13.70;9.00;;;11.10;99.90;;;;;;5052446;28;20109;-63
2023/04/29 06:49:26;;;;;;;15.18;8.68;;;11.20;99.90;;;;;;5043149;28;20506;-63
2023/04/29 06:51:53;;;;;;;14.60;8.05;;;11.20;99.90;;;;;;5031576;28;20052;-63
2023/04/29 06:54:20;;;;;;;14.23;7.93;;;11.30;99.90;;;;;;5036148;28;20081;-64
2023/04/29 06:56:47;;;;;;;20.60;8.55;;;11.40;99.90;;;;;;5051142;28;20124;-62
2023/04/29 06:59:14;;;;;;;13.90;8.50;;;11.50;99.90;;;;;;5041819;28;20045;-63
2023/04/29 07:01:40;;;;;;;14.80;7.85;;;11.50;99.90;;;;;;5039974;28;20092;-63
2023/04/29 07:04:05;;;;;;;13.18;8.75;;;11.60;99.90;;;;;;5051825;28;20041;-64
2023/04/29 07:06:31;;;;;;;15.43;8.35;;;11.60;99.90;;;;;;5047867;28;20053;-64
2023/04/29 07:08:57;;;;;;;18.08;8.73;;;11.70;99.90;;;;;;5049945;28;20032;-64
2023/04/29 07:11:23;;;;;;;13.20;7.72;;;11.70;99.90;;;;;;5051643;28;20052;-63
2023/04/29 07:13:52;;;;;;;13.15;7.60;;;11.60;99.90;;;;;;5047185;28;20124;-65
2023/04/29 07:16:20;;;;;;;13.35;8.65;;;11.80;99.90;;;;;;5031961;28;20042;-65
2023/04/29 07:18:49;;;;;;;13.38;8.20;;;11.80;99.90;;;;;;5047007;28;20056;-64
2023/04/29 07:21:14;;;;;;;13.38;7.97;;;11.90;99.90;;;;;;5050487;28;20072;-64
2023/04/29 07:23:40;;;;;;;13.52;7.97;;;12.10;99.90;;;;;;5044991;28;20068;-63
2023/04/29 07:26:14;;;;;;;15.00;8.35;;;12.30;99.90;;;;;;5048955;28;20045;-64
2023/04/29 07:28:41;;;;;;;11.73;7.53;;;12.30;99.90;;;;;;5048842;28;20033;-64
2023/04/29 07:31:06;;;;;;;13.23;8.00;;;12.40;99.90;;;;;;5045810;28;20037;-64
2023/04/29 07:33:33;;;;;;;12.27;7.40;;;12.50;99.90;;;;;;5044654;28;20045;-63
2023/04/29 07:35:58;;;;;;;11.63;7.70;;;12.50;99.90;;;;;;5031219;28;20052;-63
2023/04/29 07:38:25;;;;;;;14.00;7.55;;;12.60;99.90;;;;;;5047722;28;20098;-64
2023/04/29 07:40:50;;;;;;;13.73;7.32;;;12.60;99.90;;;;;;5048775;28;20111;-64
2023/04/29 07:43:16;;;;;;;11.98;7.57;;;12.60;99.90;;;;;;5039414;28;20141;-64
2023/04/29 07:45:42;;;;;;;12.23;7.30;;;12.70;99.90;;;;;;5046186;28;20033;-64
2023/04/29 07:48:07;;;;;;;12.15;7.28;;;12.70;99.90;;;;;;5048083;28;20387;-64
2023/04/29 07:50:36;;;;;;;11.35;6.80;;;12.80;99.90;;;;;;5045195;28;20037;-64
2023/04/29 07:53:05;;;;;;;10.63;7.38;;;12.90;99.90;;;;;;5050475;28;20132;-63
2023/04/29 07:55:31;;;;;;;13.25;7.82;;;13.00;99.90;;;;;;5047329;28;20099;-63
2023/04/29 07:57:57;;;;;;;11.68;6.90;;;13.10;99.90;;;;;;5029869;28;20049;-65
2023/04/29 08:00:23;;;;;;;10.90;6.88;;;13.10;99.90;;;;;;5031107;28;20042;-63
2023/04/29 08:02:53;;;;;;;11.98;6.60;;;13.20;99.90;;;;;;5048879;28;20549;-63
2023/04/29 08:05:20;;;;;;;15.13;7.55;;;13.10;99.90;;;;;;5051079;28;20067;-64
2023/04/29 08:07:46;;;;;;;11.73;6.63;;;13.20;99.90;;;;;;5048891;28;20049;-64
2023/04/29 08:10:12;;;;;;;12.80;7.03;;;13.40;99.90;;;;;;5015368;28;20469;-64
2023/04/29 08:12:37;;;;;;;12.05;6.80;;;13.60;99.90;;;;;;5036145;28;20129;-65
2023/04/29 08:15:04;;;;;;;12.70;7.00;;;13.50;99.90;;;;;;5049455;28;20041;-63
2023/04/29 08:17:29;;;;;;;13.20;7.88;;;13.50;99.90;;;;;;5049582;28;20064;-64
2023/04/29 08:19:55;;;;;;;11.77;6.78;;;13.60;99.90;;;;;;5042570;28;20087;-64
2023/04/29 08:22:21;;;;;;;12.40;7.32;;;13.60;99.90;;;;;;5052731;28;20041;-64
2023/04/29 08:24:47;;;;;;;11.00;6.90;;;13.70;99.90;;;;;;5034807;28;20037;-64
2023/04/29 08:27:14;;;;;;;11.95;7.18;;;13.70;99.90;;;;;;5050310;28;20045;-63
2023/04/29 08:29:42;;;;;;;10.98;7.07;;;13.60;99.90;;;;;;5046224;28;20057;-64
2023/04/29 08:32:08;;;;;;;11.30;6.88;;;13.70;99.90;;;;;;5049078;28;20064;-63
2023/04/29 08:34:35;;;;;;;10.55;6.72;;;13.90;99.90;;;;;;5046050;28;20095;-64
2023/04/29 08:37:03;;;;;;;10.55;6.95;;;14.00;99.90;;;;;;5052473;28;20084;-64
2023/04/29 08:39:30;;;;;;;11.15;6.90;;;14.00;99.90;;;;;;5050350;28;20499;-63
2023/04/29 08:41:56;;;;;;;12.57;7.07;;;14.20;99.90;;;;;;5051023;28;20037;-64
2023/04/29 08:44:22;;;;;;;12.73;7.18;;;14.50;99.90;;;;;;5043678;28;20053;-62
2023/04/29 08:46:48;;;;;;;11.85;6.88;;;14.60;99.90;;;;;;5048495;28;20538;-64
2023/04/29 08:49:14;;;;;;;11.30;7.40;;;14.70;99.90;;;;;;5049291;28;20045;-64
2023/04/29 08:51:40;;;;;;;14.43;7.13;;;14.80;99.90;;;;;;5048684;28;20048;-63
2023/04/29 08:54:06;;;;;;;11.98;6.55;;;14.70;99.90;;;;;;5047087;28;20053;-63
2023/04/29 08:56:32;;;;;;;11.27;7.10;;;14.70;99.90;;;;;;5047200;28;20057;-63
2023/04/29 08:59:01;;;;;;;10.80;7.00;;;14.60;99.90;;;;;;5047655;28;20448;-63
2023/04/29 09:01:28;;;;;;;11.00;6.90;;;14.80;99.90;;;;;;5041720;28;20089;-63
2023/04/29 09:04:13;;;;;;;10.52;6.93;;;15.00;99.90;;;;;;5052943;28;20076;-62
2023/04/29 09:06:39;;;;;;;11.50;6.72;;;14.80;99.90;;;;;;5047361;28;20067;-62
2023/04/29 09:09:05;;;;;;;11.60;7.22;;;14.60;99.90;;;;;;5051910;28;20033;-63
2023/04/29 09:11:32;;;;;;;12.10;6.57;;;14.50;99.90;;;;;;5049718;28;20045;-63
2023/04/29 09:14:00;;;;;;;14.52;6.68;;;14.30;99.90;;;;;;5048923;28;20071;-63
2023/04/29 09:16:26;;;;;;;9.40;6.00;;;14.20;99.90;;;;;;5050215;28;20048;-63
2023/04/29 09:18:53;;;;;;;10.45;6.25;;;14.10;99.90;;;;;;5050178;28;20112;-63
2023/04/29 09:21:24;;;;;;;11.73;6.78;;;14.40;99.90;;;;;;5051055;28;20087;-62
2023/04/29 09:23:51;;;;;;;11.70;6.50;;;14.50;99.90;;;;;;5050628;28;20044;-62
2023/04/29 09:26:18;;;;;;;11.02;6.50;;;14.60;99.90;;;;;;5052121;28;20060;-63
2023/04/29 09:28:44;;;;;;;13.48;6.65;;;14.60;99.90;;;;;;5050057;28;20049;-63
2023/04/29 09:31:11;;;;;;;10.10;6.00;;;14.30;99.90;;;;;;5047097;28;20040;-63
2023/04/29 09:33:49;;;;;;;8.90;5.93;;;14.50;99.90;;;;;;5049128;28;20053;-63
2023/04/29 09:36:34;;;;;;;12.43;6.07;;;14.60;99.90;;;;;;5045427;28;20045;-63
2023/04/29 09:38:59;;;;;;;8.90;5.75;;;14.50;99.90;;;;;;5045988;28;20045;-62
2023/04/29 09:41:25;;;;;;;9.40;5.78;;;14.50;99.90;;;;;;5041517;28;20052;-62
2023/04/29 09:44:07;;;;;;;9.63;5.88;;;14.70;99.90;;;;;;5041115;28;20068;-63
2023/04/29 09:46:35;;;;;;;9.55;5.57;;;14.50;99.90;;;;;;5051465;28;20052;-63
2023/04/29 09:49:01;;;;;;;8.63;5.22;;;14.50;99.90;;;;;;5051952;28;20345;-64
2023/04/29 09:51:27;;;;;;;9.95;5.60;;;14.50;99.90;;;;;;5052555;28;20045;-63
2023/04/29 09:53:53;;;;;;;9.82;5.80;;;14.80;99.90;;;;;;5046346;28;20055;-63
2023/04/29 09:56:18;;;;;;;10.95;6.13;;;14.70;99.90;;;;;;5052535;28;20148;-63
2023/04/29 09:58:44;;;;;;;12.85;6.40;;;14.90;99.90;;;;;;5042298;28;20049;-64
2023/04/29 10:01:13;;;;;;;10.45;6.32;;;15.00;99.90;;;;;;5042168;28;20048;-64
2023/04/29 10:03:41;;;;;;;8.73;5.07;;;15.20;99.90;;;;;;5049842;28;20044;-64
2023/04/29 10:06:07;;;;;;;9.48;5.57;;;15.40;99.90;;;;;;5051436;28;20041;-64
2023/04/29 10:08:33;;;;;;;8.27;5.35;;;15.50;99.90;;;;;;5048888;28;20049;-64
2023/04/29 10:11:01;;;;;;;10.85;6.20;;;15.50;99.90;;;;;;5050748;28;20382;-64
2023/04/29 10:13:27;;;;;;;11.82;6.07;;;15.30;99.90;;;;;;5049426;28;20049;-64
2023/04/29 10:16:12;;;;;;;12.43;6.35;;;15.00;99.90;;;;;;5032512;28;20049;-63
2023/04/29 10:18:42;;;;;;;10.30;5.85;;;14.80;99.90;;;;;;5032199;28;20365;-65
2023/04/29 10:21:08;;;;;;;10.30;6.20;;;14.80;99.90;;;;;;5038964;28;20049;-64
2023/04/29 10:23:35;;;;;;;10.20;5.82;;;14.70;99.90;;;;;;5052329;28;20103;-64
2023/04/29 10:26:05;;;;;;;8.63;5.40;;;14.80;99.90;;;;;;5050145;28;20085;-64
2023/04/29 10:28:31;;;;;;;8.32;5.40;;;15.10;99.90;;;;;;5047061;28;20041;-64
2023/04/29 10:31:03;;;;;;;9.80;5.68;;;15.20;99.90;;;;;;5038593;28;20100;-64
2023/04/29 10:33:34;;;;;;;11.40;6.45;;;15.20;99.90;;;;;;5043161;28;20038;-63
2023/04/29 10:36:01;;;;;;;8.80;5.25;;;15.30;99.90;;;;;;5031719;28;20077;-65
2023/04/29 10:38:36;;;;;;;8.30;5.72;;;15.50;99.90;;;;;;5032009;28;20049;-64
2023/04/29 10:41:13;;;;;;;10.82;5.80;;;15.50;99.90;;;;;;5031707;28;20480;-64
2023/04/29 10:43:42;;;;;;;9.60;5.70;;;15.40;99.90;;;;;;5031663;28;20050;-64
2023/04/29 10:46:26;;;;;;;11.05;5.90;;;15.40;99.90;;;;;;5030316;28;20376;-65
2023/04/29 10:49:05;;;;;;;7.38;4.95;;;15.50;99.90;;;;;;5031968;28;20440;-64
2023/04/29 10:51:38;;;;;;;9.30;4.85;;;15.60;99.90;;;;;;5050154;28;20430;-63
2023/04/29 10:54:11;;;;;;;10.20;5.90;;;15.70;99.90;;;;;;5051238;28;20056;-65
2023/04/29 10:56:45;;;;;;;9.88;5.15;;;15.90;99.90;;;;;;5041228;28;20061;-64
2023/04/29 10:59:13;;;;;;;10.23;5.20;;;15.90;99.90;;;;;;5031510;28;20123;-64
2023/04/29 11:01:50;;;;;;;8.63;5.32;;;15.90;99.90;;;;;;5045986;28;20048;-64
2023/04/29 11:04:17;;;;;;;9.77;5.38;;;16.00;99.90;;;;;;5049884;28;20061;-64
2023/04/29 11:06:47;;;;;;;10.48;5.53;;;16.00;99.90;;;;;;5047588;28;20618;-64
2023/04/29 11:09:23;;;;;;;8.88;5.47;;;16.10;99.90;;;;;;5031657;28;20041;-65
2023/04/29 11:12:00;;;;;;;8.18;5.30;;;16.30;99.90;;;;;;5029803;28;20500;-64
2023/04/29 11:14:35;;;;;;;8.00;5.07;;;16.30;99.90;;;;;;5031334;28;20052;-64
2023/04/29 11:17:14;;;;;;;10.85;5.50;;;16.30;99.90;;;;;;5031075;28;20057;-64
2023/04/29 11:19:45;;;;;;;8.52;5.38;;;16.10;99.90;;;;;;5031426;28;20080;-64
2023/04/29 11:22:22;;;;;;;10.30;5.57;;;16.20;99.90;;;;;;5030887;28;20054;-64
2023/04/29 11:25:00;;;;;;;8.82;5.28;;;16.10;99.90;;;;;;5048057;28;20055;-64
2023/04/29 11:27:30;;;;;;;9.48;5.18;;;16.30;99.90;;;;;;5046736;28;20033;-65
2023/04/29 11:29:57;;;;;;;7.50;4.82;;;16.20;99.90;;;;;;5031321;28;20033;-64
2023/04/29 11:32:28;;;;;;;10.38;5.32;;;16.20;99.90;;;;;;5030858;28;20121;-63
2023/04/29 11:34:54;;;;;;;10.57;5.50;;;16.30;99.90;;;;;;5031325;28;20079;-64
2023/04/29 11:37:22;;;;;;;10.13;5.72;;;16.20;99.90;;;;;;5030999;28;20042;-65
2023/04/29 11:39:56;;;;;;;9.07;5.20;;;16.20;99.90;;;;;;5030973;28;20460;-65
2023/04/29 11:42:22;;;;;;;7.85;4.50;;;16.30;99.90;;;;;;5030659;28;20457;-63
2023/04/29 11:44:51;;;;;;;9.93;4.68;;;16.30;99.90;;;;;;5030520;28;20124;-63
2023/04/29 11:47:17;;;;;;;8.63;4.63;;;16.50;99.90;;;;;;5030748;28;20045;-64
2023/04/29 11:49:43;;;;;;;7.38;4.22;;;16.50;99.90;;;;;;5031031;28;20116;-65
2023/04/29 11:52:08;;;;;;;9.52;4.40;;;16.70;99.90;;;;;;5037096;28;20077;-65
2023/04/29 11:54:34;;;;;;;8.05;4.07;;;16.70;99.90;;;;;;5049110;28;20170;-64
2023/04/29 11:57:04;;;;;;;7.80;4.25;;;16.70;99.90;;;;;;5049182;28;20175;-65
2023/04/29 11:59:32;;;;;;;7.88;4.25;;;16.70;99.90;;;;;;5049826;28;20045;-64
2023/04/29 12:01:59;;;;;;;8.27;4.55;;;16.80;99.90;;;;;;5044111;28;20140;-64
2023/04/29 12:04:25;;;;;;;7.07;4.05;;;16.90;99.90;;;;;;5030771;28;20103;-64
2023/04/29 12:06:55;;;;;;;7.18;4.32;;;16.90;99.90;;;;;;5030433;28;20045;-63
2023/04/29 12:09:21;;;;;;;10.57;4.63;;;17.10;99.90;;;;;;5032004;28;20484;-64
2023/04/29 12:11:49;;;;;;;7.82;4.43;;;17.20;99.90;;;;;;5050420;28;20443;-64
2023/04/29 12:14:15;;;;;;;8.63;4.70;;;17.10;99.60;;;;;;5050312;28;20126;-64
2023/04/29 12:16:41;;;;;;;8.00;4.47;;;17.10;99.40;;;;;;5050035;28;20045;-65
2023/04/29 12:19:09;;;;;;;6.45;3.80;;;17.20;98.90;;;;;;5040728;28;20048;-64
2023/04/29 12:21:35;;;;;;;8.27;4.10;;;17.20;98.90;;;;;;5050586;28;20048;-64
2023/04/29 12:24:02;;;;;;;7.00;4.22;;;17.20;98.30;;;;;;5040569;28;20120;-64
2023/04/29 12:26:30;;;;;;;7.47;3.88;;;17.30;98.80;;;;;;5030694;28;20049;-65
2023/04/29 12:28:58;;;;;;;9.00;4.13;;;17.30;98.40;;;;;;5047899;28;20599;-65
2023/04/29 12:31:33;;;;;;;6.75;3.70;;;17.40;97.70;;;;;;5050172;28;20068;-64
2023/04/29 12:33:59;;;;;;;6.65;3.50;;;17.20;97.80;;;;;;5039532;28;20041;-65
2023/04/29 12:36:24;;;;;;;7.28;3.55;;;17.50;98.50;;;;;;5030401;28;20120;-64
2023/04/29 12:38:53;;;;;;;7.30;3.88;;;17.50;98.30;;;;;;5030504;28;20045;-64